createdAt,value
2022-09-28T00:01:16.291Z,12.97
2022-09-28T00:03:43.085Z,17.83
2022-09-28T00:06:10.571Z,18.40
2022-09-28T00:08:37.778Z,35.23
2022-09-28T00:11:06.411Z,18.47
2022-09-28T00:13:33.453Z,16.10
2022-09-28T00:16:00.615Z,13.13
2022-09-28T00:18:27.330Z,13.67
2022-09-28T00:21:08.638Z,14.93
2022-09-28T00:23:56.134Z,16.03
2022-09-28T00:26:23.554Z,13.47
2022-09-28T00:28:59.013Z,10.90
2022-09-28T00:31:27.338Z,9.10
2022-09-28T00:33:57.522Z,8.70
2022-09-28T00:36:26.804Z,10.00
2022-09-28T00:38:53.273Z,7.90
2022-09-28T00:41:19.589Z,8.37
2022-09-28T00:43:46.512Z,7.60
2022-09-28T00:46:19.715Z,8.40
2022-09-28T00:48:56.628Z,10.23
2022-09-28T00:51:25.437Z,7.97
2022-09-28T00:53:53.889Z,8.63
2022-09-28T00:56:23.480Z,7.97
2022-09-28T00:58:52.745Z,7.27
2022-09-28T01:01:19.114Z,10.90
2022-09-28T01:03:48.626Z,7.53
2022-09-28T01:06:21.318Z,7.73
2022-09-28T01:08:51.353Z,7.77
2022-09-28T01:11:18.846Z,6.93
2022-09-28T01:13:48.207Z,6.37
2022-09-28T01:16:23.781Z,6.43
2022-09-28T01:19:21.645Z,6.53
2022-09-28T01:22:11.044Z,6.13
2022-09-28T01:24:46.128Z,5.57
2022-09-28T01:27:28.038Z,5.70
2022-09-28T01:30:01.810Z,5.57
2022-09-28T01:32:46.376Z,6.23
2022-09-28T01:35:20.507Z,7.77
2022-09-28T01:37:47.209Z,7.53
2022-09-28T01:40:15.540Z,8.73
2022-09-28T01:42:46.738Z,7.47
2022-09-28T01:45:23.570Z,8.10
2022-09-28T01:47:53.907Z,8.53
2022-09-28T01:50:22.313Z,8.40
2022-09-28T01:53:04.330Z,10.20
2022-09-28T01:55:39.029Z,8.97
2022-09-28T01:58:28.248Z,11.20
2022-09-28T02:01:00.633Z,8.73
2022-09-28T02:03:38.729Z,8.60
2022-09-28T02:06:12.395Z,10.37
2022-09-28T02:08:59.952Z,10.23
2022-09-28T02:11:41.407Z,10.10
2022-09-28T02:14:10.695Z,15.47
2022-09-28T02:16:40.275Z,11.13
2022-09-28T02:19:11.194Z,11.80
2022-09-28T02:21:47.202Z,11.40
2022-09-28T02:24:40.142Z,13.00
2022-09-28T02:27:29.508Z,11.83
2022-09-28T02:29:55.886Z,11.77
2022-09-28T02:32:25.009Z,12.43
2022-09-28T02:34:51.496Z,12.80
2022-09-28T02:37:17.896Z,13.47
2022-09-28T02:39:44.205Z,14.20
2022-09-28T02:42:21.536Z,13.30
2022-09-28T02:45:06.225Z,13.33
2022-09-28T02:48:02.946Z,14.97
2022-09-28T02:50:41.784Z,11.37
2022-09-28T02:53:19.592Z,12.73
2022-09-28T02:56:25.530Z,15.27
2022-09-28T02:59:24.777Z,11.33
2022-09-28T03:02:02.592Z,11.97
2022-09-28T03:04:42.801Z,11.70
2022-09-28T03:07:29.087Z,11.80
2022-09-28T03:10:04.525Z,12.13
2022-09-28T03:12:38.377Z,11.97
2022-09-28T03:15:11.004Z,13.03
2022-09-28T03:17:37.811Z,12.37
2022-09-28T03:20:04.906Z,13.00
2022-09-28T03:22:31.277Z,12.13
2022-09-28T03:24:57.633Z,11.77
2022-09-28T03:27:23.990Z,14.80
2022-09-28T03:29:50.637Z,12.60
2022-09-28T03:32:17.005Z,12.97
2022-09-28T03:34:43.394Z,12.27
2022-09-28T03:37:09.846Z,12.53
2022-09-28T03:39:36.748Z,12.00
2022-09-28T03:42:03.784Z,12.63
2022-09-28T03:44:33.766Z,12.67
2022-09-28T03:47:00.188Z,13.97
2022-09-28T03:49:26.535Z,14.00
2022-09-28T03:51:52.796Z,15.93
2022-09-28T03:54:19.896Z,10.87
2022-09-28T03:56:46.273Z,12.57
2022-09-28T03:59:12.621Z,12.67
2022-09-28T04:01:39.173Z,13.50
2022-09-28T04:04:05.752Z,14.73
2022-09-28T04:06:32.258Z,14.03
2022-09-28T04:08:58.643Z,14.93
2022-09-28T04:11:25.353Z,18.47
2022-09-28T04:13:51.824Z,15.70
2022-09-28T04:16:18.846Z,19.37
2022-09-28T04:19:01.357Z,23.23
2022-09-28T04:21:33.966Z,19.50
2022-09-28T04:24:08.815Z,15.77
2022-09-28T04:26:35.868Z,21.63
2022-09-28T04:29:17.638Z,23.80
2022-09-28T04:31:56.915Z,17.03
2022-09-28T04:34:36.356Z,15.93
2022-09-28T04:37:04.615Z,26.73
2022-09-28T04:39:30.969Z,16.70
2022-09-28T04:41:57.327Z,24.97
2022-09-28T04:44:23.664Z,18.37
2022-09-28T04:46:56.188Z,24.67
2022-09-28T04:49:28.770Z,27.37
2022-09-28T04:52:04.514Z,19.63
2022-09-28T04:54:30.921Z,21.17
2022-09-28T04:56:57.780Z,24.00
2022-09-28T04:59:24.620Z,19.97
2022-09-28T05:01:50.957Z,21.27
2022-09-28T05:04:35.621Z,25.23
2022-09-28T05:07:13.838Z,25.83
2022-09-28T05:09:40.278Z,26.90
2022-09-28T05:12:09.446Z,29.93
2022-09-28T05:14:36.850Z,36.87
2022-09-28T05:17:04.174Z,34.90
2022-09-28T05:19:40.161Z,32.20
2022-09-28T05:22:11.225Z,30.83
2022-09-28T05:24:41.053Z,29.27
2022-09-28T05:27:08.608Z,22.73
2022-09-28T05:29:35.077Z,26.77
2022-09-28T05:32:41.289Z,29.70
2022-09-28T05:35:17.638Z,32.80
2022-09-28T05:37:46.834Z,29.13
2022-09-28T05:40:14.021Z,28.23
2022-09-28T05:42:40.876Z,31.50
2022-09-28T05:45:08.370Z,22.87
2022-09-28T05:47:42.404Z,26.27
2022-09-28T05:50:11.776Z,27.63
2022-09-28T05:52:39.300Z,22.93
2022-09-28T05:55:07.173Z,25.40
2022-09-28T05:57:34.125Z,25.30
2022-09-28T06:00:00.950Z,25.97
2022-09-28T06:02:27.413Z,25.73
2022-09-28T06:04:54.066Z,25.73
2022-09-28T06:07:21.847Z,25.30
2022-09-28T06:09:48.229Z,24.87
2022-09-28T06:12:19.741Z,30.33
2022-09-28T06:14:49.111Z,23.27
2022-09-28T06:17:15.451Z,20.90
2022-09-28T06:19:44.685Z,28.10
2022-09-28T06:22:25.400Z,32.60
2022-09-28T06:24:59.267Z,29.50
2022-09-28T06:27:25.618Z,29.00
2022-09-28T06:29:52.709Z,24.53
2022-09-28T06:32:19.635Z,32.60
2022-09-28T06:34:50.754Z,25.80
2022-09-28T06:37:20.473Z,23.43
2022-09-28T06:39:47.035Z,30.50
2022-09-28T06:42:13.604Z,24.57
2022-09-28T06:45:02.894Z,26.93
2022-09-28T06:47:42.972Z,23.07
2022-09-28T06:50:25.404Z,29.23
2022-09-28T06:53:14.170Z,26.90
2022-09-28T06:56:09.241Z,27.00
2022-09-28T06:58:35.933Z,24.67
2022-09-28T07:01:02.431Z,28.07
2022-09-28T07:03:35.162Z,25.37
2022-09-28T07:06:31.350Z,27.93
2022-09-28T07:09:27.102Z,27.47
2022-09-28T07:12:18.960Z,28.40
2022-09-28T07:15:02.678Z,22.80
2022-09-28T07:17:29.365Z,27.13
2022-09-28T07:20:04.168Z,34.70
2022-09-28T07:22:43.615Z,27.03
2022-09-28T07:25:14.558Z,25.07
2022-09-28T07:28:00.335Z,22.67
2022-09-28T07:30:49.976Z,31.70
2022-09-28T07:33:34.810Z,25.07
2022-09-28T07:36:34.900Z,27.37
2022-09-28T07:39:03.130Z,19.43
2022-09-28T07:41:32.655Z,19.30
2022-09-28T07:44:05.862Z,20.53
2022-09-28T07:46:35.048Z,27.67
2022-09-28T07:49:09.803Z,24.33
2022-09-28T07:51:53.441Z,28.87
2022-09-28T07:54:36.168Z,22.53
2022-09-28T07:57:36.088Z,23.77
2022-09-28T08:00:16.936Z,18.43
2022-09-28T08:02:48.148Z,22.37
2022-09-28T08:05:20.709Z,29.57
2022-09-28T08:07:47.395Z,17.83
2022-09-28T08:10:14.010Z,17.63
2022-09-28T08:12:47.102Z,16.80
2022-09-28T08:15:25.492Z,16.40
2022-09-28T08:17:57.997Z,16.50
2022-09-28T08:20:50.799Z,20.20
2022-09-28T08:23:18.732Z,15.23
2022-09-28T08:25:49.723Z,19.10
2022-09-28T08:28:19.706Z,22.50
2022-09-28T08:30:48.279Z,19.27
2022-09-28T08:33:34.320Z,16.60
2022-09-28T08:36:19.116Z,16.40
2022-09-28T08:39:04.017Z,14.57
2022-09-28T08:41:55.892Z,15.87
2022-09-28T08:44:57.974Z,16.17
2022-09-28T08:48:13.157Z,16.70
2022-09-28T08:50:57.157Z,13.47
2022-09-28T08:53:48.126Z,18.33
2022-09-28T08:56:37.557Z,14.57
2022-09-28T08:59:09.288Z,10.70
2022-09-28T09:01:41.854Z,9.67
2022-09-28T09:04:12.851Z,10.97
2022-09-28T09:07:11.919Z,10.00
2022-09-28T09:10:11.472Z,11.87
2022-09-28T09:12:55.461Z,9.20
2022-09-28T09:15:47.630Z,7.70
2022-09-28T09:18:58.940Z,8.53
2022-09-28T09:21:42.203Z,8.40
2022-09-28T09:24:33.226Z,8.27
2022-09-28T09:27:14.500Z,8.03
2022-09-28T09:30:01.610Z,7.67
2022-09-28T09:32:54.476Z,9.50
2022-09-28T09:35:40.702Z,10.57
2022-09-28T09:38:27.707Z,8.93
2022-09-28T09:41:32.455Z,7.63
2022-09-28T09:44:17.238Z,7.07
2022-09-28T09:47:14.757Z,6.60
2022-09-28T09:50:11.164Z,6.97
2022-09-28T09:52:52.364Z,6.60
2022-09-28T09:55:29.742Z,7.33
2022-09-28T09:58:18.296Z,6.13
2022-09-28T10:00:54.323Z,6.90
2022-09-28T10:03:48.047Z,6.70
2022-09-28T10:06:27.967Z,7.00
2022-09-28T10:09:23.462Z,8.70
2022-09-28T10:11:51.929Z,7.67
2022-09-28T10:14:25.070Z,10.80
2022-09-28T10:17:07.518Z,9.27
2022-09-28T10:20:14.702Z,7.73
2022-09-28T10:22:56.561Z,6.90
2022-09-28T10:25:24.124Z,7.60
2022-09-28T10:27:52.379Z,6.47
2022-09-28T10:30:20.586Z,6.10
2022-09-28T10:32:48.968Z,5.07
2022-09-28T10:35:19.040Z,6.47
2022-09-28T10:37:54.090Z,5.77
2022-09-28T10:40:45.469Z,6.80
2022-09-28T10:43:33.440Z,6.50
2022-09-28T10:46:12.145Z,6.73
2022-09-28T10:48:59.367Z,7.03
2022-09-28T10:51:58.648Z,5.60
2022-09-28T10:54:36.982Z,5.17
2022-09-28T10:57:03.358Z,5.47
2022-09-28T10:59:37.805Z,5.43
2022-09-28T11:02:36.267Z,6.17
2022-09-28T11:05:29.880Z,6.73
2022-09-28T11:08:05.486Z,6.00
2022-09-28T11:10:39.254Z,6.70
2022-09-28T11:13:13.744Z,6.80
2022-09-28T11:15:44.332Z,7.73
2022-09-28T11:18:22.198Z,7.27
2022-09-28T11:20:49.447Z,7.73
2022-09-28T11:23:15.974Z,9.73
2022-09-28T11:25:42.572Z,9.43
2022-09-28T11:28:22.097Z,8.60
2022-09-28T11:30:51.986Z,8.10
2022-09-28T11:33:37.506Z,8.13
2022-09-28T11:36:45.511Z,6.27
2022-09-28T11:39:17.949Z,5.53
2022-09-28T11:41:52.905Z,4.60
2022-09-28T11:44:29.470Z,4.50
2022-09-28T11:47:46.941Z,3.77
2022-09-28T11:50:23.015Z,5.40
2022-09-28T11:53:01.614Z,3.40
2022-09-28T11:55:38.516Z,2.97
2022-09-28T11:58:25.522Z,4.03
2022-09-28T12:01:00.561Z,3.10
2022-09-28T12:03:52.137Z,3.30
2022-09-28T12:06:20.220Z,3.90
2022-09-28T12:08:53.657Z,4.40
2022-09-28T12:11:45.038Z,4.33
2022-09-28T12:14:23.417Z,7.33
2022-09-28T12:17:07.454Z,6.40
2022-09-28T12:19:43.888Z,7.20
2022-09-28T12:22:22.791Z,7.40
2022-09-28T12:24:52.490Z,9.00
2022-09-28T12:27:38.678Z,7.90
2022-09-28T12:30:26.295Z,6.80
2022-09-28T12:32:55.790Z,7.10
2022-09-28T12:36:17.072Z,8.27
2022-09-28T12:38:48.293Z,8.17
2022-09-28T12:41:35.773Z,8.30
2022-09-28T12:44:28.561Z,12.57
2022-09-28T12:47:05.592Z,9.13
2022-09-28T12:52:42.438Z,8.17
2022-09-28T12:55:20.827Z,10.60
2022-09-28T12:58:05.908Z,14.10
2022-09-28T13:00:56.256Z,9.40
2022-09-28T13:03:45.596Z,9.17
2022-09-28T13:06:34.889Z,9.53
2022-09-28T13:09:09.971Z,8.17
2022-09-28T13:11:59.300Z,10.57
2022-09-28T13:14:51.165Z,6.23
2022-09-28T13:17:22.997Z,6.70
2022-09-28T13:20:03.941Z,6.53
2022-09-28T13:22:44.164Z,6.37
2022-09-28T13:25:20.444Z,7.13
2022-09-28T13:27:53.210Z,7.83
2022-09-28T13:30:19.593Z,7.07
2022-09-28T13:32:46.867Z,8.93
2022-09-28T13:35:20.969Z,8.30
2022-09-28T13:37:48.692Z,6.93
2022-09-28T13:40:15.013Z,5.53
2022-09-28T13:42:53.157Z,4.50
2022-09-28T13:45:32.315Z,6.50
2022-09-28T13:48:17.483Z,14.50
2022-09-28T13:51:04.525Z,5.33
2022-09-28T13:53:49.690Z,4.70
2022-09-28T13:56:37.970Z,5.17
2022-09-28T13:59:18.312Z,4.67
2022-09-28T14:02:07.634Z,5.60
2022-09-28T14:04:56.926Z,5.30
2022-09-28T14:07:46.008Z,4.57
2022-09-28T14:10:24.471Z,4.40
2022-09-28T14:12:52.867Z,4.80
2022-09-28T14:15:37.465Z,5.00
2022-09-28T14:18:15.692Z,4.83
2022-09-28T14:20:48.459Z,5.23
2022-09-28T14:23:34.998Z,5.27
2022-09-28T14:26:20.671Z,6.40
2022-09-28T14:28:54.314Z,5.90
2022-09-28T14:31:29.098Z,6.53
2022-09-28T14:33:58.698Z,7.50
2022-09-28T14:36:51.453Z,7.07
2022-09-28T14:39:42.733Z,7.20
2022-09-28T14:42:13.335Z,7.13
2022-09-28T14:45:06.264Z,7.47
2022-09-28T14:47:35.077Z,7.20
2022-09-28T14:50:18.046Z,6.67
2022-09-28T14:53:12.041Z,6.40
2022-09-28T14:55:42.208Z,6.63
2022-09-28T14:58:16.052Z,7.03
2022-09-28T15:00:44.354Z,7.03
2022-09-28T15:03:12.781Z,6.63
2022-09-28T15:05:43.995Z,7.10
2022-09-28T15:08:11.223Z,6.97
2022-09-28T15:10:39.007Z,7.43
2022-09-28T15:13:18.623Z,7.17
2022-09-28T15:15:50.426Z,7.53
2022-09-28T15:18:59.522Z,7.53
2022-09-28T15:21:34.521Z,7.37
2022-09-28T15:24:01.008Z,7.30
2022-09-28T15:26:32.911Z,7.73
2022-09-28T15:29:01.812Z,6.87
2022-09-28T15:31:33.938Z,6.10
2022-09-28T15:34:35.484Z,6.47
2022-09-28T15:37:08.881Z,6.77
2022-09-28T15:39:35.326Z,6.13
2022-09-28T15:42:02.137Z,6.00
2022-09-28T15:44:32.869Z,6.47
2022-09-28T15:47:10.002Z,6.63
2022-09-28T15:49:44.220Z,5.97
2022-09-28T15:52:43.317Z,7.30
2022-09-28T15:55:26.593Z,6.50
2022-09-28T15:58:05.606Z,6.53
2022-09-28T16:00:32.006Z,7.87
2022-09-28T16:03:01.282Z,5.80
2022-09-28T16:05:49.738Z,6.23
2022-09-28T16:08:26.314Z,5.57
2022-09-28T16:11:11.969Z,5.27
2022-09-28T16:14:06.237Z,4.87
2022-09-28T16:16:46.561Z,4.87
2022-09-28T16:19:23.431Z,7.23
2022-09-28T16:22:02.128Z,4.20
2022-09-28T16:24:31.346Z,5.00
2022-09-28T16:27:21.736Z,4.27
2022-09-28T16:30:14.548Z,8.40
2022-09-28T16:32:56.331Z,4.27
2022-09-28T16:35:31.457Z,3.87
2022-09-28T16:38:03.543Z,3.70
2022-09-28T16:40:32.022Z,3.47
2022-09-28T16:42:59.916Z,4.50
2022-09-28T16:45:26.452Z,4.53
2022-09-28T16:47:56.348Z,3.10
2022-09-28T16:50:24.051Z,3.73
2022-09-28T16:53:17.248Z,3.33
2022-09-28T16:55:44.640Z,2.90
2022-09-28T16:58:11.229Z,3.70
2022-09-28T17:00:37.534Z,4.10
2022-09-28T17:03:13.229Z,3.87
2022-09-28T17:05:40.061Z,3.23
2022-09-28T17:08:06.344Z,4.63
2022-09-28T17:10:49.985Z,3.53
2022-09-28T17:13:23.462Z,11.53
2022-09-28T17:15:50.264Z,3.63
2022-09-28T17:18:18.740Z,3.43
2022-09-28T17:20:48.068Z,3.20
2022-09-28T17:23:15.268Z,3.30
2022-09-28T17:25:42.137Z,3.17
2022-09-28T17:28:20.309Z,2.93
2022-09-28T17:30:46.951Z,2.80
2022-09-28T17:33:13.789Z,6.87
2022-09-28T17:35:41.767Z,2.70
2022-09-28T17:38:11.108Z,4.20
2022-09-28T17:40:37.630Z,3.90
2022-09-28T17:43:05.635Z,2.70
2022-09-28T17:45:32.795Z,3.03
2022-09-28T17:48:00.566Z,2.80
2022-09-28T17:50:32.547Z,2.93
2022-09-28T17:52:59.874Z,3.37
2022-09-28T17:55:28.804Z,3.03
2022-09-28T17:57:56.165Z,3.23
2022-09-28T18:00:27.305Z,2.80
2022-09-28T18:02:55.625Z,3.10
2022-09-28T18:05:23.320Z,3.73
2022-09-28T18:07:50.002Z,3.67
2022-09-28T18:10:21.124Z,3.60
2022-09-28T18:12:48.987Z,4.03
2022-09-28T18:15:16.490Z,4.83
2022-09-28T18:17:44.096Z,4.10
2022-09-28T18:20:11.892Z,4.60
2022-09-28T18:22:38.408Z,4.40
2022-09-28T18:25:05.918Z,8.33
2022-09-28T18:27:34.436Z,5.77
2022-09-28T18:30:01.669Z,4.53
2022-09-28T18:32:28.125Z,3.80
2022-09-28T18:34:54.511Z,3.67
2022-09-28T18:37:20.766Z,4.37
2022-09-28T18:39:47.100Z,4.17
2022-09-28T18:42:13.464Z,4.33
2022-09-28T18:44:39.809Z,3.27
2022-09-28T18:47:06.134Z,3.20
2022-09-28T18:49:33.503Z,4.27
2022-09-28T18:51:59.834Z,4.47
2022-09-28T18:54:27.038Z,4.20
2022-09-28T18:56:57.085Z,3.40
2022-09-28T18:59:23.606Z,3.77
2022-09-28T19:01:50.314Z,6.27
2022-09-28T19:04:17.441Z,5.30
2022-09-28T19:06:44.604Z,6.93
2022-09-28T19:09:11.556Z,6.57
2022-09-28T19:11:37.822Z,5.43
2022-09-28T19:14:04.257Z,5.77
2022-09-28T19:16:33.876Z,12.13
2022-09-28T19:19:02.614Z,5.70
2022-09-28T19:21:30.028Z,5.17
2022-09-28T19:23:56.498Z,7.20
2022-09-28T19:26:25.993Z,5.67
2022-09-28T19:28:52.406Z,5.97
2022-09-28T19:31:19.496Z,6.07
2022-09-28T19:33:46.048Z,6.93
2022-09-28T19:36:20.488Z,6.20
2022-09-28T19:38:46.756Z,7.07
2022-09-28T19:41:36.608Z,6.47
2022-09-28T19:44:06.396Z,6.37
2022-09-28T19:46:34.882Z,6.00
2022-09-28T19:49:04.693Z,6.67
2022-09-28T19:51:31.988Z,6.53
2022-09-28T19:54:01.613Z,5.93
2022-09-28T19:56:32.681Z,6.73
2022-09-28T19:59:00.278Z,6.73
2022-09-28T20:01:27.821Z,9.70
2022-09-28T20:03:55.832Z,9.03
2022-09-28T20:06:23.321Z,7.97
2022-09-28T20:08:50.394Z,9.03
2022-09-28T20:11:18.058Z,7.40
2022-09-28T20:13:44.496Z,9.03
2022-09-28T20:16:14.475Z,8.03
2022-09-28T20:18:43.877Z,8.17
2022-09-28T20:21:17.119Z,7.97
2022-09-28T20:23:45.597Z,7.70
2022-09-28T20:26:12.235Z,6.70
2022-09-28T20:28:38.968Z,7.87
2022-09-28T20:31:11.738Z,8.90
2022-09-28T20:33:38.949Z,8.27
2022-09-28T20:36:06.716Z,8.63
2022-09-28T20:38:33.376Z,8.93
2022-09-28T20:41:01.041Z,8.40
2022-09-28T20:43:31.100Z,11.07
2022-09-28T20:46:02.094Z,9.00
2022-09-28T20:48:28.579Z,10.60
2022-09-28T20:51:02.886Z,9.67
2022-09-28T20:53:32.999Z,8.73
2022-09-28T20:56:04.810Z,8.70
2022-09-28T20:58:31.714Z,9.13
2022-09-28T21:01:07.727Z,9.13
2022-09-28T21:03:35.292Z,8.90
2022-09-28T21:06:02.108Z,11.93
2022-09-28T21:08:28.545Z,8.70
2022-09-28T21:10:54.974Z,9.63
2022-09-28T21:13:21.742Z,9.37
2022-09-28T21:15:49.381Z,8.63
2022-09-28T21:18:16.817Z,9.80
2022-09-28T21:20:47.067Z,8.53
2022-09-28T21:23:14.774Z,7.67
2022-09-28T21:25:41.527Z,9.47
2022-09-28T21:28:08.375Z,9.30
2022-09-28T21:30:34.765Z,9.67
2022-09-28T21:33:03.947Z,8.60
2022-09-28T21:35:30.301Z,8.13
2022-09-28T21:37:56.825Z,7.77
2022-09-28T21:40:23.183Z,7.77
2022-09-28T21:42:49.641Z,7.90
2022-09-28T21:45:17.229Z,7.80
2022-09-28T21:47:47.389Z,8.07
2022-09-28T21:50:13.821Z,8.87
2022-09-28T21:52:40.050Z,8.23
2022-09-28T21:55:06.897Z,8.03
2022-09-28T21:57:33.264Z,9.57
2022-09-28T21:59:59.656Z,8.63
2022-09-28T22:02:26.185Z,8.57
2022-09-28T22:04:52.575Z,9.10
2022-09-28T22:07:18.890Z,9.87
2022-09-28T22:09:47.102Z,9.07
2022-09-28T22:12:15.784Z,8.17
2022-09-28T22:14:42.080Z,8.73
2022-09-28T22:17:08.460Z,8.73
2022-09-28T22:19:34.774Z,8.27
2022-09-28T22:22:01.109Z,9.90
2022-09-28T22:24:27.400Z,8.93
2022-09-28T22:26:53.700Z,8.30
2022-09-28T22:29:21.513Z,8.80
2022-09-28T22:31:47.832Z,9.47
2022-09-28T22:34:14.223Z,11.80
2022-09-28T22:36:40.713Z,9.90
2022-09-28T22:39:07.062Z,10.53
2022-09-28T22:41:33.585Z,10.40
2022-09-28T22:43:59.985Z,10.73
2022-09-28T22:46:28.362Z,10.30
2022-09-28T22:48:57.001Z,9.03
2022-09-28T22:51:25.141Z,8.93
2022-09-28T22:53:51.384Z,10.60
2022-09-28T22:56:19.172Z,9.27
2022-09-28T22:58:46.439Z,10.20
2022-09-28T23:01:14.579Z,10.63
2022-09-28T23:03:42.116Z,10.33
2022-09-28T23:06:09.677Z,10.70
2022-09-28T23:08:36.214Z,10.50
2022-09-28T23:11:03.559Z,9.67
2022-09-28T23:13:30.995Z,9.03
2022-09-28T23:15:58.979Z,10.17
2022-09-28T23:18:28.737Z,9.40
2022-09-28T23:20:57.220Z,9.83
2022-09-28T23:23:23.665Z,8.50
2022-09-28T23:25:50.363Z,8.50
2022-09-28T23:28:17.258Z,9.60
2022-09-28T23:30:43.584Z,7.97
2022-09-28T23:33:12.957Z,10.00
2022-09-28T23:35:39.452Z,11.40
2022-09-28T23:38:06.533Z,10.27
2022-09-28T23:40:32.921Z,10.60
2022-09-28T23:42:59.648Z,11.70
2022-09-28T23:45:26.005Z,10.20
2022-09-28T23:47:52.316Z,11.80
2022-09-28T23:50:18.659Z,10.13
2022-09-28T23:52:48.017Z,10.97
2022-09-28T23:55:14.614Z,12.30
2022-09-28T23:57:43.598Z,12.20
